Wetterdaten: Woche 05.09.16 - 11.09.16 (KW36)
Datum Zeit Temp. I. Temp. A. Feuchte I. Feuchte A. Luftdruck Regen Wind Richtung Sonnenschein UV Solar Taupunkt Windchill Windben
05.09.2016 00:00 25,3 C 13,4 C 55 % 92 % 1012,6 hPa 0,4 l/m 0,1 km/h (0 Bft) SW 0,00 h 0,0 UV-I 0 W/m 12,1 C 13,4 C 0,4 km/h (0 Bft)
05.09.2016 01:00 25,2 C 13,3 C 55 % 94 % 1012,4 hPa 0,0 l/m 0,9 km/h (0 Bft) W-SW 0,00 h 0,0 UV-I 0 W/m 12,3 C 13,3 C 3,9 km/h (1 Bft)
05.09.2016 02:00 25,2 C 13,3 C 55 % 94 % 1012,5 hPa 0,2 l/m 1,1 km/h (0 Bft) SW 0,00 h 0,0 UV-I 0 W/m 12,3 C 13,2 C 4,0 km/h (1 Bft)
05.09.2016 03:00 25,1 C 13,3 C 56 % 94 % 1013,0 hPa 0,0 l/m 0,6 km/h (0 Bft) W-SW 0,00 h 0,0 UV-I 0 W/m 12,3 C 13,3 C 2,8 km/h (1 Bft)
05.09.2016 04:00 25,1 C 13,2 C 56 % 94 % 1013,2 hPa 0,0 l/m 1,8 km/h (1 Bft) W-SW 0,00 h 0,0 UV-I 0 W/m 12,3 C 13,2 C 5,3 km/h (1 Bft)
05.09.2016 05:00 25,1 C 13,2 C 56 % 93 % 1013,4 hPa 0,0 l/m 1,1 km/h (0 Bft) W-SW 0,00 h 0,0 UV-I 0 W/m 12,1 C 13,2 C 4,0 km/h (1 Bft)
05.09.2016 06:00 25,1 C 13,1 C 56 % 93 % 1013,9 hPa 0,0 l/m 0,5 km/h (0 Bft) W-SW 0,00 h 0,0 UV-I 5 W/m 12,1 C 13,1 C 1,8 km/h (1 Bft)
05.09.2016 07:00 25,1 C 13,1 C 56 % 94 % 1014,4 hPa 0,6 l/m 1,4 km/h (1 Bft) W 0,00 h 0,0 UV-I 19 W/m 12,1 C 13,1 C 4,7 km/h (1 Bft)
05.09.2016 08:00 25,1 C 13,2 C 56 % 95 % 1014,7 hPa 0,0 l/m 0,6 km/h (0 Bft) W-SW 0,02 h 0,5 UV-I 64 W/m 12,4 C 13,2 C 2,0 km/h (1 Bft)
05.09.2016 09:00 25,2 C 13,6 C 55 % 93 % 1014,9 hPa 0,0 l/m 1,8 km/h (1 Bft) W 0,22 h 1,0 UV-I 106 W/m 12,6 C 13,6 C 5,8 km/h (2 Bft)
05.09.2016 10:00 25,2 C 14,9 C 55 % 86 % 1015,2 hPa 0,0 l/m 5,4 km/h (1 Bft) W 0,87 h 1,6 UV-I 265 W/m 12,6 C 14,4 C 12,6 km/h (3 Bft)
05.09.2016 11:00 24,9 C 15,2 C 53 % 83 % 1015,7 hPa 0,0 l/m 6,6 km/h (2 Bft) W 0,88 h 1,6 UV-I 184 W/m 12,3 C 14,2 C 13,9 km/h (3 Bft)
05.09.2016 12:00 24,9 C 15,9 C 53 % 81 % 1016,0 hPa 0,0 l/m 5,2 km/h (1 Bft) W 0,88 h 2,1 UV-I 246 W/m 12,6 C 15,4 C 11,4 km/h (2 Bft)
05.09.2016 13:00 25,0 C 16,1 C 53 % 83 % 1016,4 hPa 0,2 l/m 6,0 km/h (2 Bft) W 1,00 h 2,8 UV-I 342 W/m 13,2 C 15,6 C 13,1 km/h (3 Bft)
05.09.2016 14:00 25,0 C 16,1 C 53 % 86 % 1016,7 hPa 1,0 l/m 3,6 km/h (1 Bft) W-NW 0,35 h 1,4 UV-I 162 W/m 13,7 C 15,8 C 8,5 km/h (2 Bft)
05.09.2016 15:00 25,0 C 15,2 C 54 % 93 % 1017,3 hPa 0,4 l/m 1,1 km/h (0 Bft) W-NW 0,67 h 1,5 UV-I 166 W/m 14,0 C 15,1 C 4,2 km/h (1 Bft)
05.09.2016 16:00 24,9 C 15,6 C 54 % 90 % 1017,7 hPa 0,0 l/m 3,4 km/h (1 Bft) W-NW 0,40 h 1,0 UV-I 139 W/m 13,9 C 15,3 C 7,5 km/h (2 Bft)
05.09.2016 17:00 25,0 C 16,1 C 54 % 86 % 1018,1 hPa 0,0 l/m 3,0 km/h (1 Bft) W-NW 0,00 h 0,6 UV-I 90 W/m 13,7 C 16,0 C 7,9 km/h (2 Bft)
05.09.2016 18:00 25,3 C 16,1 C 55 % 83 % 1018,7 hPa 0,0 l/m 3,8 km/h (1 Bft) W-NW 0,00 h 0,0 UV-I 40 W/m 13,3 C 15,9 C 9,6 km/h (2 Bft)
05.09.2016 19:00 25,3 C 15,7 C 55 % 84 % 1019,4 hPa 0,0 l/m 1,0 km/h (0 Bft) NW 0,00 h 0,0 UV-I 12 W/m 13,0 C 15,7 C 3,2 km/h (1 Bft)
05.09.2016 20:00 25,1 C 15,5 C 55 % 85 % 1020,3 hPa 0,0 l/m 2,8 km/h (1 Bft) W-NW 0,00 h 0,0 UV-I 0 W/m 13,0 C 15,4 C 6,8 km/h (2 Bft)
05.09.2016 21:00 25,1 C 14,8 C 55 % 88 % 1020,8 hPa 0,0 l/m 0,0 km/h (0 Bft) N 0,00 h 0,0 UV-I 0 W/m 12,8 C 14,8 C 0,0 km/h (0 Bft)
05.09.2016 22:00 25,2 C 14,2 C 56 % 90 % 1021,2 hPa 0,0 l/m 0,0 km/h (0 Bft) N 0,00 h 0,0 UV-I 0 W/m 12,6 C 14,2 C 0,0 km/h (0 Bft)
05.09.2016 23:00 25,3 C 14,2 C 56 % 92 % 1021,6 hPa 0,2 l/m 0,7 km/h (0 Bft) W-NW 0,00 h 0,0 UV-I 0 W/m 13,0 C 14,2 C 2,1 km/h (1 Bft)
06.09.2016 00:00 25,5 C 14,4 C 56 % 94 % 1021,9 hPa 0,2 l/m 0,2 km/h (0 Bft) W-NW 0,00 h 0,0 UV-I 0 W/m 13,4 C 14,4 C 1,2 km/h (1 Bft)
06.09.2016 01:00 25,6 C 14,4 C 56 % 94 % 1022,3 hPa 0,0 l/m 0,0 km/h (0 Bft) N 0,00 h 0,0 UV-I 0 W/m 13,5 C 14,4 C 0,0 km/h (0 Bft)
06.09.2016 02:00 25,5 C 14,4 C 57 % 95 % 1022,8 hPa 0,4 l/m 0,6 km/h (0 Bft) N-NW 0,00 h 0,0 UV-I 0 W/m 13,6 C 14,4 C 2,5 km/h (1 Bft)
06.09.2016 03:00 25,5 C 14,2 C 57 % 95 % 1023,2 hPa 0,0 l/m 0,0 km/h (0 Bft) N 0,00 h 0,0 UV-I 0 W/m 13,4 C 14,2 C 0,2 km/h (0 Bft)
06.09.2016 04:00 25,5 C 13,9 C 57 % 95 % 1023,5 hPa 0,0 l/m 0,0 km/h (0 Bft) N 0,00 h 0,0 UV-I 0 W/m 13,1 C 13,9 C 0,0 km/h (0 Bft)
06.09.2016 05:00 25,6 C 13,9 C 57 % 96 % 1023,9 hPa 0,0 l/m 0,0 km/h (0 Bft) N 0,00 h 0,0 UV-I 0 W/m 13,2 C 13,9 C 0,1 km/h (0 Bft)
06.09.2016 06:00 25,5 C 13,4 C 57 % 95 % 1024,4 hPa 0,0 l/m 0,0 km/h (0 Bft) N 0,00 h 0,0 UV-I 9 W/m 12,7 C 13,4 C 0,0 km/h (0 Bft)
06.09.2016 07:00 25,5 C 13,0 C 57 % 95 % 1024,9 hPa 0,0 l/m 0,2 km/h (0 Bft) N-NO 0,00 h 0,0 UV-I 33 W/m 12,2 C 13,0 C 0,5 km/h (0 Bft)
06.09.2016 08:00 25,2 C 14,1 C 56 % 95 % 1025,3 hPa 0,0 l/m 0,9 km/h (0 Bft) NW 0,87 h 0,7 UV-I 245 W/m 13,3 C 14,1 C 1,2 km/h (1 Bft)
06.09.2016 09:00 25,2 C 16,3 C 55 % 86 % 1025,5 hPa 0,2 l/m 4,8 km/h (1 Bft) N 0,95 h 1,7 UV-I 440 W/m 13,9 C 15,8 C 8,4 km/h (2 Bft)
06.09.2016 10:00 24,9 C 17,6 C 54 % 78 % 1025,7 hPa 0,0 l/m 5,7 km/h (1 Bft) N-NO 0,82 h 2,6 UV-I 411 W/m 13,7 C 17,1 C 11,2 km/h (2 Bft)
06.09.2016 11:00 24,3 C 19,8 C 52 % 68 % 1025,8 hPa 0,0 l/m 4,8 km/h (1 Bft) N 1,00 h 4,1 UV-I 764 W/m 13,7 C 19,6 C 10,2 km/h (2 Bft)
06.09.2016 12:00 24,4 C 20,3 C 53 % 63 % 1025,7 hPa 0,0 l/m 5,5 km/h (1 Bft) N 0,98 h 4,1 UV-I 550 W/m 13,0 C 20,0 C 11,8 km/h (2 Bft)
06.09.2016 13:00 24,7 C 21,1 C 54 % 58 % 1025,6 hPa 0,0 l/m 6,2 km/h (2 Bft) N 0,87 h 4,3 UV-I 612 W/m 12,7 C 20,5 C 12,3 km/h (3 Bft)
06.09.2016 14:00 24,8 C 21,6 C 55 % 56 % 1025,2 hPa 0,0 l/m 3,0 km/h (1 Bft) N-NO 0,95 h 3,4 UV-I 525 W/m 12,3 C 21,5 C 7,7 km/h (2 Bft)
06.09.2016 15:00 24,9 C 21,9 C 55 % 53 % 1025,0 hPa 0,0 l/m 4,5 km/h (1 Bft) N 0,98 h 3,2 UV-I 567 W/m 11,7 C 21,6 C 9,5 km/h (2 Bft)
06.09.2016 16:00 24,9 C 22,1 C 56 % 50 % 1024,9 hPa 0,0 l/m 3,5 km/h (1 Bft) N-NO 1,00 h 2,1 UV-I 488 W/m 11,1 C 22,0 C 9,1 km/h (2 Bft)
06.09.2016 17:00 25,0 C 21,4 C 55 % 50 % 1024,8 hPa 0,0 l/m 3,7 km/h (1 Bft) N-NO 1,00 h 1,1 UV-I 278 W/m 10,7 C 21,2 C 8,5 km/h (2 Bft)
06.09.2016 18:00 25,0 C 20,3 C 54 % 53 % 1024,8 hPa 0,0 l/m 1,3 km/h (1 Bft) N-NO 0,07 h 0,6 UV-I 81 W/m 10,2 C 20,2 C 4,4 km/h (1 Bft)
06.09.2016 19:00 24,9 C 18,6 C 52 % 60 % 1025,1 hPa 0,0 l/m 0,1 km/h (0 Bft) O-NO 0,00 h 0,0 UV-I 11 W/m 10,7 C 18,6 C 0,4 km/h (0 Bft)
06.09.2016 20:00 25,0 C 16,8 C 54 % 67 % 1025,7 hPa 0,0 l/m 0,1 km/h (0 Bft) O-NO 0,00 h 0,0 UV-I 0 W/m 10,7 C 16,8 C 1,1 km/h (1 Bft)
06.09.2016 21:00 25,0 C 15,7 C 55 % 72 % 1026,0 hPa 0,0 l/m 1,0 km/h (0 Bft) O-NO 0,00 h 0,0 UV-I 0 W/m 10,6 C 15,7 C 4,1 km/h (1 Bft)
06.09.2016 22:00 25,1 C 14,5 C 55 % 76 % 1026,2 hPa 0,0 l/m 0,1 km/h (0 Bft) O-NO 0,00 h 0,0 UV-I 0 W/m 10,4 C 14,5 C 0,6 km/h (0 Bft)
06.09.2016 23:00 25,0 C 13,6 C 55 % 79 % 1026,1 hPa 0,0 l/m 0,0 km/h (0 Bft) N 0,00 h 0,0 UV-I 0 W/m 10,2 C 13,6 C 0,0 km/h (0 Bft)
07.09.2016 00:00 24,9 C 12,8 C 55 % 84 % 1026,2 hPa 0,0 l/m 0,4 km/h (0 Bft) O-NO 0,00 h 0,0 UV-I 0 W/m 10,1 C 12,8 C 1,5 km/h (1 Bft)
07.09.2016 01:00 24,8 C 12,9 C 56 % 85 % 1026,0 hPa 0,0 l/m 0,3 km/h (0 Bft) O-NO 0,00 h 0,0 UV-I 0 W/m 10,5 C 12,9 C 2,1 km/h (1 Bft)
07.09.2016 02:00 24,8 C 12,5 C 56 % 85 % 1025,7 hPa 0,0 l/m 0,0 km/h (0 Bft) N-NW 0,00 h 0,0 UV-I 0 W/m 10,0 C 12,5 C 0,2 km/h (0 Bft)
07.09.2016 03:00 24,7 C 11,3 C 56 % 87 % 1025,3 hPa 0,0 l/m 0,0 km/h (0 Bft) N 0,00 h 0,0 UV-I 0 W/m 9,3 C 11,3 C 0,1 km/h (0 Bft)
07.09.2016 04:00 24,7 C 10,7 C 56 % 90 % 1024,8 hPa 0,0 l/m 0,0 km/h (0 Bft) N 0,00 h 0,0 UV-I 0 W/m 9,2 C 10,7 C 0,0 km/h (0 Bft)
07.09.2016 05:00 24,7 C 10,2 C 57 % 92 % 1024,2 hPa 0,0 l/m 0,0 km/h (0 Bft) N 0,00 h 0,0 UV-I 0 W/m 8,9 C 10,2 C 0,0 km/h (0 Bft)
07.09.2016 06:00 24,7 C 9,7 C 57 % 92 % 1023,8 hPa 0,0 l/m 0,0 km/h (0 Bft) N 0,00 h 0,0 UV-I 8 W/m 8,5 C 9,7 C 0,0 km/h (0 Bft)
07.09.2016 07:00 24,6 C 9,5 C 57 % 93 % 1023,9 hPa 0,0 l/m 0,0 km/h (0 Bft) N 0,00 h 0,0 UV-I 27 W/m 8,4 C 9,5 C 0,0 km/h (0 Bft)
07.09.2016 08:00 24,6 C 12,5 C 57 % 95 % 1023,8 hPa 0,0 l/m 1,1 km/h (1 Bft) O-SO 0,93 h 0,8 UV-I 238 W/m 11,7 C 12,4 C 2,9 km/h (1 Bft)
07.09.2016 09:00 24,7 C 17,1 C 56 % 81 % 1023,5 hPa 0,0 l/m 6,4 km/h (2 Bft) O 1,00 h 1,6 UV-I 309 W/m 13,8 C 16,4 C 13,4 km/h (3 Bft)
07.09.2016 10:00 24,7 C 18,2 C 55 % 77 % 1023,1 hPa 0,0 l/m 4,8 km/h (1 Bft) O 1,00 h 2,8 UV-I 485 W/m 14,1 C 17,8 C 11,8 km/h (2 Bft)
07.09.2016 11:00 24,6 C 20,0 C 55 % 72 % 1022,6 hPa 0,0 l/m 4,3 km/h (1 Bft) SO 1,00 h 3,9 UV-I 628 W/m 14,8 C 19,8 C 11,2 km/h (2 Bft)
07.09.2016 12:00 24,7 C 22,0 C 56 % 66 % 1021,8 hPa 0,0 l/m 5,2 km/h (1 Bft) O 1,00 h 4,6 UV-I 686 W/m 15,4 C 21,8 C 12,3 km/h (3 Bft)
07.09.2016 13:00 24,8 C 23,5 C 56 % 61 % 1021,0 hPa 0,0 l/m 6,3 km/h (2 Bft) SO 1,00 h 4,7 UV-I 690 W/m 15,4 C 23,1 C 15,5 km/h (3 Bft)
07.09.2016 14:00 24,9 C 24,1 C 56 % 58 % 1020,4 hPa 0,0 l/m 6,3 km/h (2 Bft) O-SO 1,00 h 4,1 UV-I 646 W/m 15,3 C 23,8 C 17,6 km/h (3 Bft)
07.09.2016 15:00 25,0 C 24,6 C 55 % 55 % 1019,8 hPa 0,0 l/m 5,7 km/h (1 Bft) O-SO 1,00 h 3,1 UV-I 555 W/m 15,0 C 24,3 C 16,8 km/h (3 Bft)
07.09.2016 16:00 25,2 C 24,7 C 55 % 55 % 1019,3 hPa 0,0 l/m 4,8 km/h (1 Bft) SO 1,00 h 1,9 UV-I 421 W/m 14,9 C 24,4 C 13,6 km/h (3 Bft)
07.09.2016 17:00 25,1 C 24,4 C 54 % 54 % 1018,8 hPa 0,0 l/m 2,6 km/h (1 Bft) SO 0,97 h 1,0 UV-I 243 W/m 14,5 C 24,3 C 7,9 km/h (2 Bft)
07.09.2016 18:00 24,9 C 23,3 C 54 % 59 % 1018,4 hPa 0,0 l/m 0,9 km/h (0 Bft) NO 0,00 h 0,5 UV-I 78 W/m 14,7 C 23,3 C 3,0 km/h (1 Bft)
07.09.2016 19:00 25,0 C 21,9 C 55 % 64 % 1018,1 hPa 0,0 l/m 0,4 km/h (0 Bft) O-NO 0,00 h 0,0 UV-I 14 W/m 14,7 C 21,9 C 1,3 km/h (1 Bft)
07.09.2016 20:00 25,1 C 20,8 C 55 % 69 % 1018,0 hPa 0,0 l/m 0,5 km/h (0 Bft) O-SO 0,00 h 0,0 UV-I 0 W/m 14,9 C 20,8 C 2,0 km/h (1 Bft)
07.09.2016 21:00 25,1 C 19,8 C 55 % 74 % 1017,7 hPa 0,0 l/m 4,0 km/h (1 Bft) O-SO 0,00 h 0,0 UV-I 0 W/m 15,0 C 19,7 C 10,4 km/h (2 Bft)
07.09.2016 22:00 25,2 C 19,3 C 56 % 76 % 1017,4 hPa 0,0 l/m 2,5 km/h (1 Bft) O-SO 0,00 h 0,0 UV-I 0 W/m 14,9 C 19,2 C 7,5 km/h (2 Bft)
07.09.2016 23:00 25,2 C 18,6 C 56 % 78 % 1017,1 hPa 0,0 l/m 1,6 km/h (1 Bft) SO 0,00 h 0,0 UV-I 0 W/m 14,8 C 18,6 C 4,5 km/h (1 Bft)
08.09.2016 00:00 25,1 C 18,2 C 56 % 81 % 1016,7 hPa 0,0 l/m 0,8 km/h (0 Bft) O-SO 0,00 h 0,0 UV-I 0 W/m 14,8 C 18,2 C 3,2 km/h (1 Bft)
08.09.2016 01:00 24,9 C 17,4 C 56 % 83 % 1016,3 hPa 0,0 l/m 0,1 km/h (0 Bft) N-NO 0,00 h 0,0 UV-I 0 W/m 14,4 C 17,4 C 0,8 km/h (0 Bft)
08.09.2016 02:00 24,9 C 16,3 C 56 % 87 % 1015,7 hPa 0,0 l/m 1,9 km/h (1 Bft) O-NO 0,00 h 0,0 UV-I 0 W/m 14,1 C 16,3 C 5,1 km/h (1 Bft)
08.09.2016 03:00 24,8 C 15,9 C 57 % 88 % 1015,2 hPa 0,0 l/m 3,6 km/h (1 Bft) O-NO 0,00 h 0,0 UV-I 0 W/m 14,0 C 15,9 C 9,5 km/h (2 Bft)
08.09.2016 04:00 24,8 C 15,6 C 57 % 89 % 1014,9 hPa 0,0 l/m 0,9 km/h (0 Bft) O-NO 0,00 h 0,0 UV-I 0 W/m 13,7 C 15,6 C 4,3 km/h (1 Bft)
08.09.2016 05:00 24,8 C 15,0 C 57 % 90 % 1014,7 hPa 0,0 l/m 2,0 km/h (1 Bft) O-NO 0,00 h 0,0 UV-I 0 W/m 13,4 C 14,9 C 5,4 km/h (1 Bft)
08.09.2016 06:00 24,8 C 14,3 C 57 % 90 % 1014,7 hPa 0,0 l/m 0,1 km/h (0 Bft) O-NO 0,00 h 0,0 UV-I 8 W/m 12,7 C 14,3 C 0,7 km/h (0 Bft)
08.09.2016 07:00 24,8 C 14,2 C 57 % 93 % 1014,8 hPa 0,0 l/m 0,5 km/h (0 Bft) O-NO 0,00 h 0,0 UV-I 27 W/m 13,1 C 14,2 C 1,9 km/h (1 Bft)
08.09.2016 08:00 24,9 C 16,0 C 57 % 92 % 1014,6 hPa 0,0 l/m 0,3 km/h (0 Bft) O-NO 0,92 h 0,8 UV-I 238 W/m 14,7 C 16,0 C 0,9 km/h (0 Bft)
08.09.2016 09:00 25,1 C 19,1 C 57 % 81 % 1014,3 hPa 0,0 l/m 1,2 km/h (1 Bft) SO 1,00 h 1,6 UV-I 405 W/m 15,6 C 19,1 C 3,0 km/h (1 Bft)
08.09.2016 10:00 24,8 C 21,5 C 57 % 69 % 1014,0 hPa 0,0 l/m 3,4 km/h (1 Bft) SO 1,00 h 2,8 UV-I 540 W/m 15,5 C 21,3 C 6,9 km/h (2 Bft)
08.09.2016 11:00 24,9 C 23,4 C 57 % 61 % 1013,4 hPa 0,0 l/m 4,3 km/h (1 Bft) SO 1,00 h 3,9 UV-I 647 W/m 15,4 C 23,3 C 8,8 km/h (2 Bft)
08.09.2016 12:00 25,0 C 24,7 C 56 % 54 % 1013,3 hPa 0,0 l/m 7,0 km/h (2 Bft) S-SO 1,00 h 4,6 UV-I 695 W/m 14,8 C 24,3 C 13,0 km/h (3 Bft)
08.09.2016 13:00 25,1 C 25,7 C 56 % 51 % 1013,1 hPa 0,0 l/m 7,6 km/h (2 Bft) S-SO 1,00 h 4,7 UV-I 698 W/m 14,9 C 25,3 C 12,9 km/h (3 Bft)
08.09.2016 14:00 25,2 C 25,9 C 56 % 52 % 1012,8 hPa 0,0 l/m 7,8 km/h (2 Bft) S 1,00 h 4,1 UV-I 651 W/m 15,2 C 25,4 C 13,5 km/h (3 Bft)
08.09.2016 15:00 25,2 C 26,3 C 56 % 52 % 1012,5 hPa 0,0 l/m 6,5 km/h (2 Bft) S-SO 1,00 h 3,0 UV-I 554 W/m 15,6 C 26,1 C 11,5 km/h (2 Bft)
08.09.2016 16:00 25,3 C 26,2 C 56 % 53 % 1012,1 hPa 0,0 l/m 6,9 km/h (2 Bft) S-SO 1,00 h 1,9 UV-I 426 W/m 15,7 C 25,9 C 12,0 km/h (2 Bft)
08.09.2016 17:00 25,5 C 26,0 C 55 % 53 % 1011,9 hPa 0,0 l/m 3,6 km/h (1 Bft) S 0,90 h 0,9 UV-I 241 W/m 15,6 C 25,9 C 7,8 km/h (2 Bft)
08.09.2016 18:00 25,7 C 24,9 C 56 % 57 % 1011,7 hPa 0,0 l/m 2,4 km/h (1 Bft) S-SO 0,00 h 0,5 UV-I 72 W/m 15,8 C 24,9 C 5,3 km/h (1 Bft)
08.09.2016 19:00 25,7 C 23,4 C 58 % 63 % 1011,9 hPa 0,0 l/m 0,0 km/h (0 Bft) N 0,00 h 0,0 UV-I 15 W/m 16,0 C 23,4 C 0,1 km/h (0 Bft)
08.09.2016 20:00 25,7 C 22,0 C 58 % 70 % 1012,3 hPa 0,0 l/m 0,0 km/h (0 Bft) N 0,00 h 0,0 UV-I 0 W/m 16,2 C 22,0 C 0,0 km/h (0 Bft)
08.09.2016 21:00 25,5 C 20,2 C 58 % 76 % 1012,5 hPa 0,0 l/m 0,0 km/h (0 Bft) N 0,00 h 0,0 UV-I 0 W/m 15,8 C 20,2 C 0,0 km/h (0 Bft)
08.09.2016 22:00 25,3 C 18,5 C 58 % 81 % 1012,8 hPa 0,0 l/m 0,0 km/h (0 Bft) N 0,00 h 0,0 UV-I 0 W/m 15,2 C 18,5 C 0,0 km/h (0 Bft)
08.09.2016 23:00 25,4 C 17,1 C 58 % 86 % 1013,1 hPa 0,0 l/m 0,0 km/h (0 Bft) N 0,00 h 0,0 UV-I 0 W/m 14,7 C 17,1 C 0,0 km/h (0 Bft)
09.09.2016 00:00 25,4 C 15,9 C 58 % 88 % 1013,5 hPa 0,0 l/m 0,0 km/h (0 Bft) N 0,00 h 0,0 UV-I 0 W/m 13,9 C 15,9 C 0,0 km/h (0 Bft)
09.09.2016 01:00 25,2 C 15,1 C 58 % 89 % 1013,9 hPa 0,0 l/m 0,0 km/h (0 Bft) N 0,00 h 0,0 UV-I 0 W/m 13,3 C 15,1 C 0,0 km/h (0 Bft)
09.09.2016 02:00 25,2 C 14,2 C 58 % 90 % 1014,0 hPa 0,0 l/m 0,0 km/h (0 Bft) N 0,00 h 0,0 UV-I 0 W/m 12,5 C 14,2 C 0,0 km/h (0 Bft)
09.09.2016 03:00 25,2 C 13,5 C 58 % 91 % 1014,0 hPa 0,0 l/m 0,0 km/h (0 Bft) N 0,00 h 0,0 UV-I 0 W/m 12,0 C 13,5 C 0,0 km/h (0 Bft)
09.09.2016 04:00 25,1 C 12,8 C 59 % 91 % 1014,1 hPa 0,0 l/m 0,0 km/h (0 Bft) N 0,00 h 0,0 UV-I 0 W/m 11,4 C 12,8 C 0,0 km/h (0 Bft)
09.09.2016 05:00 25,1 C 12,2 C 59 % 92 % 1014,4 hPa 0,0 l/m 0,0 km/h (0 Bft) N 0,00 h 0,0 UV-I 0 W/m 10,9 C 12,2 C 0,0 km/h (0 Bft)
09.09.2016 06:00 25,1 C 11,9 C 59 % 93 % 1014,9 hPa 0,0 l/m 0,0 km/h (0 Bft) N 0,00 h 0,0 UV-I 9 W/m 10,8 C 11,9 C 0,0 km/h (0 Bft)
09.09.2016 07:00 25,0 C 12,0 C 59 % 94 % 1015,3 hPa 0,0 l/m 0,0 km/h (0 Bft) N 0,00 h 0,0 UV-I 32 W/m 11,0 C 12,0 C 0,0 km/h (0 Bft)
09.09.2016 08:00 25,2 C 13,9 C 59 % 95 % 1015,7 hPa 0,0 l/m 0,0 km/h (0 Bft) N 0,57 h 0,7 UV-I 187 W/m 13,0 C 13,9 C 0,0 km/h (0 Bft)
09.09.2016 09:00 25,2 C 16,1 C 57 % 92 % 1016,0 hPa 0,0 l/m 0,0 km/h (0 Bft) N 0,05 h 1,0 UV-I 295 W/m 14,8 C 16,1 C 0,0 km/h (0 Bft)
10.09.2016 02:00 25,2 C 14,4 C 59 % 91 % 1016,9 hPa 0,0 l/m 0,0 km/h (0 Bft) N 0,00 h 0,0 UV-I 0 W/m 12,9 C 14,4 C 0,0 km/h (0 Bft)
10.09.2016 03:00 25,2 C 14,1 C 59 % 92 % 1017,0 hPa 0,0 l/m 0,0 km/h (0 Bft) N 0,00 h 0,0 UV-I 0 W/m 12,8 C 14,1 C 0,0 km/h (0 Bft)
10.09.2016 04:00 25,2 C 13,5 C 59 % 92 % 1016,8 hPa 0,0 l/m 0,0 km/h (0 Bft) N 0,00 h 0,0 UV-I 0 W/m 12,3 C 13,5 C 0,0 km/h (0 Bft)
10.09.2016 05:00 25,2 C 12,9 C 59 % 92 % 1016,6 hPa 0,0 l/m 0,0 km/h (0 Bft) N 0,00 h 0,0 UV-I 0 W/m 11,7 C 12,9 C 0,0 km/h (0 Bft)
10.09.2016 06:00 25,1 C 12,2 C 59 % 93 % 1016,8 hPa 0,0 l/m 0,0 km/h (0 Bft) N 0,00 h 0,0 UV-I 7 W/m 11,1 C 12,2 C 0,0 km/h (0 Bft)
10.09.2016 07:00 25,1 C 11,8 C 59 % 93 % 1016,9 hPa 0,0 l/m 0,0 km/h (0 Bft) N 0,00 h 0,0 UV-I 17 W/m 10,7 C 11,8 C 0,0 km/h (0 Bft)
10.09.2016 08:00 25,1 C 12,4 C 59 % 95 % 1016,9 hPa 0,0 l/m 0,0 km/h (0 Bft) N 0,25 h 0,6 UV-I 105 W/m 11,6 C 12,4 C 0,0 km/h (0 Bft)
10.09.2016 09:00 25,1 C 16,1 C 59 % 94 % 1016,9 hPa 0,0 l/m 0,0 km/h (0 Bft) N 1,00 h 1,1 UV-I 221 W/m 15,2 C 16,1 C 0,0 km/h (0 Bft)
10.09.2016 10:00 25,1 C 19,2 C 59 % 87 % 1016,8 hPa 0,0 l/m 0,3 km/h (0 Bft) W 1,00 h 1,7 UV-I 242 W/m 17,0 C 19,2 C 0,5 km/h (0 Bft)
10.09.2016 11:00 24,9 C 21,5 C 60 % 80 % 1016,6 hPa 0,0 l/m 2,0 km/h (1 Bft) W-NW 1,00 h 2,8 UV-I 429 W/m 17,8 C 21,5 C 4,1 km/h (1 Bft)
10.09.2016 12:00 25,0 C 25,2 C 60 % 65 % 1016,1 hPa 0,0 l/m 0,7 km/h (0 Bft) SO 1,00 h 3,9 UV-I 618 W/m 18,2 C 25,2 C 2,5 km/h (1 Bft)
10.09.2016 13:00 25,1 C 26,8 C 59 % 56 % 1015,6 hPa 0,0 l/m 0,8 km/h (0 Bft) O-NO 0,82 h 3,5 UV-I 511 W/m 17,2 C 26,8 C 2,7 km/h (1 Bft)
10.09.2016 14:00 25,2 C 27,2 C 59 % 53 % 1015,0 hPa 0,0 l/m 2,8 km/h (1 Bft) O-SO 1,00 h 3,7 UV-I 663 W/m 16,6 C 27,2 C 6,2 km/h (2 Bft)
10.09.2016 15:00 25,2 C 27,7 C 58 % 48 % 1014,7 hPa 0,0 l/m 2,4 km/h (1 Bft) S 1,00 h 2,6 UV-I 529 W/m 15,6 C 27,7 C 5,9 km/h (2 Bft)
10.09.2016 16:00 25,2 C 27,0 C 57 % 49 % 1014,5 hPa 0,0 l/m 0,7 km/h (0 Bft) SO 0,72 h 1,4 UV-I 290 W/m 15,3 C 27,0 C 2,6 km/h (1 Bft)
10.09.2016 17:00 25,2 C 26,1 C 57 % 51 % 1014,2 hPa 0,0 l/m 0,3 km/h (0 Bft) W-SW 0,25 h 0,7 UV-I 116 W/m 15,3 C 26,1 C 1,0 km/h (0 Bft)
10.09.2016 18:00 25,1 C 25,3 C 57 % 55 % 1014,1 hPa 0,0 l/m 0,5 km/h (0 Bft) N 0,00 h 0,5 UV-I 74 W/m 15,7 C 25,3 C 1,3 km/h (1 Bft)
10.09.2016 19:00 25,1 C 23,5 C 57 % 65 % 1014,1 hPa 0,0 l/m 0,0 km/h (0 Bft) N 0,00 h 0,0 UV-I 24 W/m 16,5 C 23,5 C 0,1 km/h (0 Bft)
10.09.2016 20:00 25,1 C 21,8 C 57 % 73 % 1014,4 hPa 0,0 l/m 0,0 km/h (0 Bft) N 0,00 h 0,0 UV-I 0 W/m 16,7 C 21,8 C 0,0 km/h (0 Bft)
10.09.2016 21:00 25,1 C 19,9 C 58 % 79 % 1014,8 hPa 0,0 l/m 0,0 km/h (0 Bft) N 0,00 h 0,0 UV-I 0 W/m 16,1 C 19,9 C 0,0 km/h (0 Bft)
10.09.2016 22:00 25,0 C 18,3 C 58 % 82 % 1015,2 hPa 0,0 l/m 0,0 km/h (0 Bft) N 0,00 h 0,0 UV-I 0 W/m 15,3 C 18,3 C 0,0 km/h (0 Bft)
10.09.2016 23:00 25,0 C 17,0 C 58 % 85 % 1015,5 hPa 0,0 l/m 0,0 km/h (0 Bft) N 0,00 h 0,0 UV-I 0 W/m 14,5 C 17,0 C 0,0 km/h (0 Bft)
11.09.2016 00:00 24,9 C 16,0 C 58 % 88 % 1015,4 hPa 0,0 l/m 0,0 km/h (0 Bft) N 0,00 h 0,0 UV-I 0 W/m 14,0 C 16,0 C 0,0 km/h (0 Bft)
11.09.2016 01:00 24,9 C 15,3 C 58 % 89 % 1015,3 hPa 0,0 l/m 0,0 km/h (0 Bft) N 0,00 h 0,0 UV-I 0 W/m 13,5 C 15,3 C 0,0 km/h (0 Bft)
11.09.2016 02:00 24,9 C 14,9 C 58 % 90 % 1015,4 hPa 0,0 l/m 0,0 km/h (0 Bft) N 0,00 h 0,0 UV-I 0 W/m 13,3 C 14,9 C 0,0 km/h (0 Bft)
11.09.2016 03:00 24,8 C 14,3 C 57 % 92 % 1015,6 hPa 0,0 l/m 0,0 km/h (0 Bft) N 0,00 h 0,0 UV-I 0 W/m 13,0 C 14,3 C 0,0 km/h (0 Bft)
11.09.2016 04:00 24,8 C 13,7 C 57 % 92 % 1015,6 hPa 0,0 l/m 0,0 km/h (0 Bft) N 0,00 h 0,0 UV-I 0 W/m 12,4 C 13,7 C 0,0 km/h (0 Bft)
11.09.2016 05:00 24,8 C 13,2 C 57 % 93 % 1015,7 hPa 0,0 l/m 0,0 km/h (0 Bft) N 0,00 h 0,0 UV-I 0 W/m 12,1 C 13,2 C 0,0 km/h (0 Bft)
11.09.2016 06:00 24,8 C 12,7 C 57 % 93 % 1016,0 hPa 0,0 l/m 0,0 km/h (0 Bft) N 0,00 h 0,0 UV-I 5 W/m 11,6 C 12,7 C 0,0 km/h (0 Bft)
11.09.2016 07:00 24,7 C 12,5 C 56 % 94 % 1016,5 hPa 0,0 l/m 0,0 km/h (0 Bft) N 0,00 h 0,0 UV-I 26 W/m 11,5 C 12,5 C 0,0 km/h (0 Bft)
11.09.2016 08:00 24,7 C 14,3 C 56 % 95 % 1016,9 hPa 0,0 l/m 0,0 km/h (0 Bft) N 0,75 h 0,7 UV-I 199 W/m 13,4 C 14,3 C 0,0 km/h (0 Bft)
11.09.2016 09:00 24,7 C 19,4 C 56 % 80 % 1017,3 hPa 0,0 l/m 0,0 km/h (0 Bft) N 1,00 h 1,4 UV-I 375 W/m 15,9 C 19,4 C 0,1 km/h (0 Bft)
11.09.2016 10:00 24,8 C 22,8 C 57 % 70 % 1017,4 hPa 0,0 l/m 0,1 km/h (0 Bft) W-NW 1,00 h 2,4 UV-I 511 W/m 17,0 C 22,8 C 0,7 km/h (0 Bft)
11.09.2016 11:00 24,8 C 25,5 C 57 % 60 % 1017,4 hPa 0,0 l/m 0,3 km/h (0 Bft) W-NW 1,00 h 3,3 UV-I 609 W/m 17,0 C 25,5 C 1,5 km/h (1 Bft)
11.09.2016 12:00 24,8 C 27,5 C 57 % 50 % 1017,3 hPa 0,0 l/m 0,4 km/h (0 Bft) W 1,00 h 4,0 UV-I 660 W/m 16,0 C 27,5 C 2,2 km/h (1 Bft)
11.09.2016 13:00 24,9 C 28,2 C 57 % 44 % 1017,2 hPa 0,0 l/m 0,9 km/h (0 Bft) S 1,00 h 3,8 UV-I 670 W/m 14,7 C 28,2 C 3,1 km/h (1 Bft)
11.09.2016 14:00 25,0 C 28,4 C 56 % 43 % 1017,0 hPa 0,0 l/m 2,3 km/h (1 Bft) NW 0,83 h 3,0 UV-I 555 W/m 14,4 C 28,3 C 5,6 km/h (1 Bft)
11.09.2016 15:00 25,0 C 27,8 C 55 % 44 % 1016,8 hPa 0,0 l/m 0,5 km/h (0 Bft) S 0,83 h 2,3 UV-I 429 W/m 14,4 C 27,8 C 1,4 km/h (1 Bft)
11.09.2016 16:00 25,1 C 28,0 C 55 % 42 % 1016,6 hPa 0,0 l/m 1,0 km/h (0 Bft) S-SO 1,00 h 1,6 UV-I 393 W/m 13,7 C 28,0 C 3,1 km/h (1 Bft)
11.09.2016 17:00 25,1 C 27,7 C 54 % 42 % 1016,5 hPa 0,0 l/m 0,1 km/h (0 Bft) N-NW 0,87 h 0,8 UV-I 219 W/m 13,7 C 27,7 C 0,9 km/h (0 Bft)
11.09.2016 18:00 25,0 C 26,6 C 54 % 47 % 1016,5 hPa 0,0 l/m 0,0 km/h (0 Bft) N 0,00 h 0,0 UV-I 62 W/m 14,1 C 26,6 C 0,1 km/h (0 Bft)
11.09.2016 19:00 25,0 C 23,0 C 55 % 64 % 1016,9 hPa 0,0 l/m 0,0 km/h (0 Bft) N 0,00 h 0,0 UV-I 10 W/m 15,8 C 23,0 C 0,0 km/h (0 Bft)
11.09.2016 20:00 25,0 C 20,7 C 56 % 74 % 1017,5 hPa 0,0 l/m 0,0 km/h (0 Bft) N 0,00 h 0,0 UV-I 0 W/m 16,0 C 20,7 C 0,0 km/h (0 Bft)
11.09.2016 21:00 24,9 C 19,7 C 56 % 77 % 1017,8 hPa 0,0 l/m 0,0 km/h (0 Bft) N 0,00 h 0,0 UV-I 0 W/m 15,5 C 19,7 C 0,0 km/h (0 Bft)
Min-Datum _ 06.09.16 07.09.16 06.09.16 11.09.16 08.09.16 - 05.09.16 - - - - 07.09.16 07.09.16 05.09.16
_ Min-Zeit 11:36 06:54 19:13 14:22 18:36 - 00:01 - - - - 06:54 06:54 00:01
Minimum _ 24,2 C 9,4 C 50 % 39 % 1011,6 hPa - 0,0 km/h (0 Bft) - - - - 8,2 C 9,4 C 0,0 km/h (0 Bft)
Max-Datum _ 08.09.16 11.09.16 10.09.16 06.09.16 07.09.16 05.09.16 05.09.16 - 07.09.16 06.09.16 06.09.16 10.09.16 11.09.16 07.09.16
_ Max-Zeit 18:23 14:24 11:14 08:16 00:23 14:17 12:17 - 09:07 12:54 14:00 12:24 14:24 15:34
Maximum _ 25,8 C 28,9 C 60 % 97 % 1026,4 hPa 1,0 l/m 20,9 km/h
W (4 Bft)
- 0,07 h 5,4 UV-I 895 W/m 19,6 C 28,9 C 33,8 km/h
O (5 Bft)
Durchschnitt _ 25,0 C 17,9 C 56 % 78 % 1017,9 hPa #3,8 l/m 1,6 km/h (1 Bft) SO #53:26 h 2,2 UV-I 298 W/m 13,5 C 17,9 C 3,8 km/h (1 Bft)